Olney, IL

3:17 AM CDT on July 13, 2014 (GMT -0500)
Parkersburg/Wynoose (KILOLNEY4) Elev 418 ft | 38.60 °N, 88.14 °W | Change Station

Current weather conditions updated 42 seconds ago

Clear
Clear
76.9 °F
Feels Like 78 °F
N
0.0
Wind Variable Wind from SW
Gusts 1.0 mph

Today is forecast to be Much Warmer than yesterday. Showers and thunderstorms tonight.

Today
High -- | Low -- °F
--% Chance of Precip.
Yesterday
High -- | Low -- °F
Precip. -- in
5:38 AM 8:17 PM
Full, 99% visible
Pressure 29.98 in
Visibility 10.0 miles
Clouds Clear
Heat Index 78 °F
Dew Point 73 °F
Humidity 89%
Rainfall 0.00 in
Snow Depth Not available.
UV 0 out of 12
Pollen 3.30 out of 12
Air Quality Not available.
Flu Activity Sporadic
METAR KOLY 130755Z AUTO 00000KT 10SM CLR 25/22 A2998 RMK AO2

More Conditions Fewer Conditions

Pressure 29.98 in
Visibility 10.0 miles
Clouds Clear
Heat Index 78 °F
Dew Point 73 °F
Humidity 89%
Rainfall 0.00 in
Snow Depth Not available.
UV 0 out of 12
Pollen 3.30 out of 12
Air Quality Not available.
Flu Activity Sporadic
METAR KOLY 130755Z AUTO 00000KT 10SM CLR 25/22 A2998 RMK AO2

More Conditions Fewer Conditions

10-Day Weather Forecast

Almanac

Astronomy

Jul. 13, 2014 Rise Set
Actual Time 5:38 AM CDT 8:17 PM CDT
Civil Twilight 5:07 AM CDT 8:48 PM CDT
Nautical Twilight 4:29 AM CDT 9:27 PM CDT
Astronomical Twilight 3:45 AM CDT 10:10 PM CDT
Moon 9:07 PM CDT 7:07 AM CDT
Length of Visible Light 15h 40m
Length of Day
14h 38m
Tomorrow will be 1m 12s shorter.
Full, 99% of the Moon is Illuminated
Today
Full
Jul 18
Last Quarter
Jul 26
New
Aug 3
First Quarter
Aug 10
Full

Today's Extremes

State Highs State Lows

Community

WunderPhotos

Upload Photos

1,733,143 photos uploaded!

Nearby

Snow Depth

Station Depth Elevation
No new snow has been reported.

Earthquake Activity

City Distance Mag. Time & Date
No recent earthquake activity has been reported nearby.
Minimum magnitude displayed is 2.5.

Coastal Water Temperatures

Place Temperature
No Stations Reporting

Nearby Weather Stations

Station Location Temp. Heat Index Dew Point Humidity Wind Precip. Elev Updated Type
Parkersburg/Wynoose, Olney, IL 76.9 °F 78 °F 73 °F 89% SW  at  0.0 mph 0.00 in / hr 418 ft 3:17 AM CDT Normal
Olney - 2 Miles South, Olney, IL 76.8 °F 78 °F 73 °F 87% SSW  at  5.0 mph 0.00 in / hr 484 ft 3:17 AM CDT Normal
Southern Illinois, West Salem, IL 77.4 °F 79 °F 71 °F 81% WSW  at  3.1 mph 0.00 in / hr 518 ft 3:17 AM CDT Rapid Fire
North East Olney, Il, Olney, IL 78.8 °F 83 °F 78 °F 98% WNW  at  0.0 mph - / hr 479 ft 3:05 AM CDT Normal
North of Baker's Garage, Albion, IL 77.9 °F 80 °F 73 °F 84% WSW  at  4.0 mph 0.00 in / hr 490 ft 3:17 AM CDT Rapid Fire

Show More Stations Show Fewer Stations